Time;durP1;ratioP1;P1;durP2;ratioP2;P2;SDS_P1;SDS_P2;PMS_P1;PMS_P2;Temp;Humidity;BMP_temperature;BMP_pressure;BME280_temperature;BME280_humidity;BME280_pressure;Samples;Min_cycle;Max_cycle;Signal;HPM_P1;HPM_P2
2023/03/06 00:00:57;;;;;;;97.05;49.05;;;;;;;7.96;71.70;100157.06;5030675;28;20112;-80
2023/03/06 00:03:26;;;;;;;83.18;45.30;;;;;;;7.97;71.50;100155.25;5031057;28;20667;-82
2023/03/06 00:05:54;;;;;;;97.20;50.03;;;;;;;8.02;71.10;100145.00;5031696;28;20033;-82
2023/03/06 00:08:19;;;;;;;90.38;48.08;;;;;;;7.98;71.15;100140.91;5031331;28;20026;-81
2023/03/06 00:10:45;;;;;;;99.80;46.97;;;;;;;8.04;70.62;100145.75;5043098;28;20491;-81
2023/03/06 00:13:13;;;;;;;83.82;43.17;;;;;;;7.89;70.25;100144.28;5042745;28;20060;-81
2023/03/06 00:15:39;;;;;;;82.72;42.90;;;;;;;7.91;69.91;100153.03;5030771;28;20586;-82
2023/03/06 00:18:05;;;;;;;82.93;42.85;;;;;;;7.89;68.98;100144.28;5030513;28;20100;-82
2023/03/06 00:20:32;;;;;;;83.28;43.25;;;;;;;7.97;68.71;100157.91;5030631;28;20510;-82
2023/03/06 00:22:57;;;;;;;79.20;42.95;;;;;;;7.83;68.27;100152.81;5030440;28;20026;-81
2023/03/06 00:25:23;;;;;;;73.43;41.67;;;;;;;7.64;68.16;100156.88;5030375;28;20041;-80
2023/03/06 00:27:49;;;;;;;84.28;43.65;;;;;;;7.61;68.42;100151.75;5030168;28;20061;-82
2023/03/06 00:30:17;;;;;;;94.15;41.20;;;;;;;7.63;68.24;100152.50;5029910;28;20096;-81
2023/03/06 00:32:43;;;;;;;75.60;38.97;;;;;;;7.56;68.05;100148.59;5030524;28;20033;-82
2023/03/06 00:35:10;;;;;;;70.10;38.00;;;;;;;7.56;67.72;100159.28;5030204;28;20033;-81
2023/03/06 00:37:36;;;;;;;68.72;34.10;;;;;;;7.47;67.03;100153.78;5029913;28;20492;-81
2023/03/06 00:40:04;;;;;;;61.95;33.95;;;;;;;7.31;66.39;100138.03;5029482;28;20044;-81
2023/03/06 00:42:29;;;;;;;67.38;34.90;;;;;;;7.31;65.99;100134.53;5029944;28;20029;-81
2023/03/06 00:44:55;;;;;;;59.78;31.80;;;;;;;7.13;66.21;100134.06;5029812;28;20029;-80
2023/03/06 00:47:20;;;;;;;71.05;33.72;;;;;;;7.25;65.72;100154.53;5029886;28;20035;-80
2023/03/06 00:49:46;;;;;;;62.88;34.00;;;;;;;7.15;65.94;100147.34;5030271;28;20030;-80
2023/03/06 00:52:12;;;;;;;57.70;32.13;;;;;;;7.12;65.23;100145.75;5029858;28;20033;-82
2023/03/06 00:54:38;;;;;;;57.35;30.38;;;;;;;7.07;65.11;100142.56;5030170;28;20072;-80
2023/03/06 00:57:03;;;;;;;59.75;28.30;;;;;;;6.99;65.02;100147.63;5030263;28;20077;-83
2023/03/06 00:59:29;;;;;;;59.72;29.05;;;;;;;6.94;64.75;100150.63;5030038;28;20025;-81
2023/03/06 01:01:54;;;;;;;51.53;26.27;;;;;;;6.98;64.65;100148.59;5028255;28;20021;-81
2023/03/06 01:04:20;;;;;;;47.95;27.48;;;;;;;6.90;64.43;100148.31;5029752;28;20124;-82
2023/03/06 01:06:46;;;;;;;51.55;27.45;;;;;;;6.87;64.13;100148.53;5030982;28;20643;-81
2023/03/06 01:09:12;;;;;;;44.20;26.13;;;;;;;6.60;64.31;100129.19;5039915;28;20481;-81
2023/03/06 01:11:37;;;;;;;42.65;24.02;;;;;;;6.61;63.67;100130.88;5040957;28;20049;-81
2023/03/06 01:14:03;;;;;;;53.85;25.48;;;;;;;6.69;64.08;100142.72;5032361;28;20036;-82
2023/03/06 01:16:28;;;;;;;45.63;25.05;;;;;;;6.33;64.56;100135.53;5029503;28;20060;-81
2023/03/06 01:18:54;;;;;;;47.58;24.63;;;;;;;6.53;64.65;100151.00;5029377;28;20029;-82
2023/03/06 01:21:20;;;;;;;50.17;26.45;;;;;;;6.43;64.67;100149.09;5029550;28;20025;-81
2023/03/06 01:23:46;;;;;;;55.22;25.30;;;;;;;6.38;65.00;100130.75;5028933;28;20022;-81
2023/03/06 01:26:12;;;;;;;44.95;25.55;;;;;;;6.50;64.54;100135.19;5029302;28;20037;-80
2023/03/06 01:28:38;;;;;;;43.72;23.67;;;;;;;6.63;64.03;100139.66;5029317;28;20123;-81
2023/03/06 01:31:04;;;;;;;42.97;21.95;;;;;;;6.64;63.41;100141.34;5028938;28;20029;-81
2023/03/06 01:33:30;;;;;;;37.22;18.98;;;;;;;6.54;62.95;100136.66;5028761;28;20539;-82
2023/03/06 01:35:55;;;;;;;38.90;18.98;;;;;;;6.57;62.00;100149.81;5028980;28;20049;-80
2023/03/06 01:38:21;;;;;;;38.15;18.08;;;;;;;6.48;61.47;100131.78;5029315;28;20037;-82
2023/03/06 01:40:46;;;;;;;32.95;16.90;;;;;;;6.60;61.09;100147.88;5029303;28;20040;-81
2023/03/06 01:43:27;;;;;;;23.75;14.68;;;;;;;6.57;60.59;100136.44;5029326;28;20034;-80
2023/03/06 01:46:30;;;;;;;27.98;15.73;;;;;;;6.66;60.52;100148.31;5029547;28;20025;-81
2023/03/06 01:48:57;;;;;;;;;;;;;;;6.63;60.49;100161.03;5029486;28;20113;-81
2023/03/06 01:51:28;;;;;;;26.42;15.52;;;;;;;6.52;60.73;100153.78;5032438;28;20307;-81
2023/03/06 01:53:55;;;;;;;29.17;15.82;;;;;;;6.58;60.79;100156.00;5033053;28;20026;-81
2023/03/06 01:56:21;;;;;;;31.83;17.00;;;;;;;6.47;60.19;100151.44;5033797;28;20527;-80
2023/03/06 01:58:48;;;;;;;35.60;16.63;;;;;;;6.60;60.62;100161.25;5033482;28;20050;-81
2023/03/06 02:01:14;;;;;;;29.30;14.52;;;;;;;6.58;60.29;100166.69;5033861;28;20057;-81
2023/03/06 02:03:41;;;;;;;29.52;16.45;;;;;;;6.62;59.97;100161.97;5033010;28;20025;-81
2023/03/06 02:06:07;;;;;;;28.08;14.73;;;;;;;6.67;59.70;100175.84;5032428;28;20034;-80
2023/03/06 02:08:33;;;;;;;29.00;15.70;;;;;;;6.47;59.38;100178.16;5043693;28;20024;-80
2023/03/06 02:11:10;;;;;;;33.25;16.80;;;;;;;6.59;59.88;100181.75;5044272;28;20048;-81
2023/03/06 02:13:36;;;;;;;25.17;14.93;;;;;;;6.62;60.00;100175.34;5033277;28;20026;-82
2023/03/06 02:16:03;;;;;;;25.63;15.30;;;;;;;6.69;59.49;100187.31;5032852;28;20026;-81
2023/03/06 02:18:29;;;;;;;27.73;14.38;;;;;;;6.66;59.23;100192.88;5032796;28;20603;-79
2023/03/06 02:21:02;;;;;;;27.67;15.85;;;;;;;6.78;58.79;100191.97;5031252;28;20389;-80
2023/03/06 02:23:39;;;;;;;31.35;15.77;;;;;;;6.77;58.75;100199.13;5031753;28;20435;-80
2023/03/06 02:26:07;;;;;;;26.27;15.23;;;;;;;6.77;58.86;100192.94;5032612;28;20033;-80
2023/03/06 02:28:32;;;;;;;24.92;13.55;;;;;;;6.68;59.13;100185.59;5032706;28;20021;-82
2023/03/06 02:30:58;;;;;;;28.38;15.35;;;;;;;6.75;58.66;100197.53;5032546;28;20041;-81
2023/03/06 02:33:27;;;;;;;29.23;15.80;;;;;;;6.61;58.84;100201.19;5033801;28;20148;-80
2023/03/06 02:35:55;;;;;;;24.90;13.77;;;;;;;6.56;58.56;100196.19;5033468;28;20061;-82
2023/03/06 02:38:27;;;;;;;29.25;14.85;;;;;;;6.44;58.99;100194.41;5033124;28;20057;-81
2023/03/06 02:40:53;;;;;;;26.85;13.65;;;;;;;6.43;59.24;100191.84;5033308;28;20041;-80
2023/03/06 02:43:26;;;;;;;24.35;12.25;;;;;;;6.44;58.01;100183.72;5033233;28;20029;-81
2023/03/06 02:45:52;;;;;;;24.77;14.10;;;;;;;6.45;57.94;100198.78;5033696;28;20021;-82
2023/03/06 02:48:18;;;;;;;23.85;13.63;;;;;;;6.37;58.40;100182.44;5033172;28;21240;-81
2023/03/06 02:50:44;;;;;;;23.17;13.90;;;;;;;6.45;58.19;100198.78;5032981;28;20335;-81
2023/03/06 02:53:12;;;;;;;26.80;13.50;;;;;;;6.57;58.10;100208.56;5032432;28;20035;-81
2023/03/06 02:55:38;;;;;;;22.75;13.60;;;;;;;6.60;58.48;100209.34;5032308;28;20130;-82
2023/03/06 02:58:04;;;;;;;24.90;14.52;;;;;;;6.63;58.09;100209.13;5032341;28;20037;-80
2023/03/06 03:00:30;;;;;;;30.15;15.13;;;;;;;6.58;58.31;100204.09;5033149;28;20035;-80
2023/03/06 03:02:56;;;;;;;30.75;14.20;;;;;;;6.74;58.43;100206.50;5031836;28;20064;-80
2023/03/06 03:05:22;;;;;;;24.45;14.02;;;;;;;6.66;57.92;100193.72;5032718;28;20555;-80
2023/03/06 03:07:47;;;;;;;27.58;13.52;;;;;;;6.83;58.22;100213.88;5043087;28;20120;-81
2023/03/06 03:10:13;;;;;;;34.95;14.25;;;;;;;6.83;57.75;100203.19;5041092;28;20029;-81
2023/03/06 03:12:39;;;;;;;21.98;13.88;;;;;;;6.74;57.00;100201.19;5032718;28;20053;-80
2023/03/06 03:15:05;;;;;;;25.42;12.80;;;;;;;6.62;57.09;100207.41;5032104;28;20459;-82
2023/03/06 03:17:31;;;;;;;25.33;14.63;;;;;;;6.53;57.21;100217.78;5032356;28;20087;-82
2023/03/06 03:19:56;;;;;;;23.60;14.02;;;;;;;6.55;57.09;100220.34;5031997;28;20021;-80
2023/03/06 03:22:22;;;;;;;26.63;14.55;;;;;;;6.52;57.37;100218.75;5032068;28;20032;-81
2023/03/06 03:24:47;;;;;;;30.17;16.00;;;;;;;6.38;57.53;100194.00;5032132;28;20021;-81
2023/03/06 03:27:13;;;;;;;34.78;15.75;;;;;;;6.43;57.54;100218.53;5031948;28;20021;-80
2023/03/06 03:29:39;;;;;;;24.38;14.18;;;;;;;6.38;57.35;100210.88;5030676;28;20048;-80
2023/03/06 03:32:06;;;;;;;26.80;14.77;;;;;;;6.34;57.17;100205.84;5032540;28;20550;-81
2023/03/06 03:34:31;;;;;;;27.33;15.45;;;;;;;6.32;57.12;100211.31;5032677;28;20056;-82
2023/03/06 03:36:57;;;;;;;22.38;13.98;;;;;;;6.32;57.24;100216.66;5032581;28;20030;-82
2023/03/06 03:39:22;;;;;;;24.60;13.05;;;;;;;6.24;57.01;100202.97;5032910;28;20028;-80
2023/03/06 03:41:48;;;;;;;31.85;14.02;;;;;;;6.31;56.90;100217.59;5032587;28;20025;-81
2023/03/06 03:44:14;;;;;;;23.10;11.68;;;;;;;6.31;56.74;100211.41;5034588;28;20108;-81
2023/03/06 03:46:39;;;;;;;23.02;12.73;;;;;;;6.38;56.63;100213.53;5055586;28;20037;-79
2023/03/06 03:49:05;;;;;;;22.25;13.75;;;;;;;6.36;56.52;100206.59;5051129;28;20037;-80
2023/03/06 03:51:31;;;;;;;19.92;12.70;;;;;;;6.44;56.37;100212.25;5046064;28;20029;-80
2023/03/06 03:53:56;;;;;;;21.83;13.25;;;;;;;6.43;56.53;100198.03;5035970;28;20029;-79
2023/03/06 03:56:23;;;;;;;33.80;15.80;;;;;;;6.55;56.54;100218.53;5036323;28;20029;-80
2023/03/06 03:58:49;;;;;;;24.58;13.60;;;;;;;6.64;56.39;100206.31;5034127;28;20017;-82
2023/03/06 04:01:14;;;;;;;26.02;12.95;;;;;;;6.69;56.02;100216.69;5031857;28;20032;-80
2023/03/06 04:03:40;;;;;;;23.77;13.07;;;;;;;6.74;55.76;100211.88;5034170;28;20128;-81
2023/03/06 04:06:06;;;;;;;21.40;12.30;;;;;;;6.79;55.90;100215.91;5045756;28;20029;-80
2023/03/06 04:08:31;;;;;;;31.77;13.32;;;;;;;6.96;55.38;100217.38;5044705;28;20061;-82
2023/03/06 04:10:57;;;;;;;27.70;13.52;;;;;;;7.05;55.58;100227.38;5030802;28;20022;-81
2023/03/06 04:13:23;;;;;;;26.80;13.55;;;;;;;7.17;54.85;100223.81;5029522;28;20546;-80
2023/03/06 04:15:51;;;;;;;25.02;13.95;;;;;;;7.12;55.17;100232.16;5030755;28;20484;-81
2023/03/06 04:18:17;;;;;;;23.33;13.90;;;;;;;7.13;54.73;100228.53;5030534;28;20437;-81
2023/03/06 04:20:44;;;;;;;26.95;13.23;;;;;;;7.22;54.32;100232.34;5030481;28;20037;-82
2023/03/06 04:23:09;;;;;;;20.15;11.57;;;;;;;7.31;53.98;100220.97;5030641;28;20471;-82
2023/03/06 04:25:35;;;;;;;25.58;12.27;;;;;;;7.34;53.62;100225.25;5029517;28;20037;-81
2023/03/06 04:28:01;;;;;;;24.67;11.40;;;;;;;7.41;53.62;100237.19;5030610;28;20112;-82
2023/03/06 04:30:26;;;;;;;22.30;13.02;;;;;;;7.53;53.63;100222.88;5030560;28;20052;-81
2023/03/06 04:32:51;;;;;;;28.30;13.07;;;;;;;7.60;53.42;100226.81;5030268;28;20060;-82
2023/03/06 04:35:17;;;;;;;21.73;12.40;;;;;;;7.63;53.39;100226.59;5030997;28;20049;-80
2023/03/06 04:37:43;;;;;;;19.80;12.07;;;;;;;7.57;53.11;100221.69;5042489;28;20025;-83
2023/03/06 04:40:35;;;;;;;28.33;12.75;;;;;;;7.54;53.17;100238.84;5047435;28;20045;-82
2023/03/06 04:43:01;;;;;;;22.30;11.93;;;;;;;7.52;53.12;100248.78;5023261;28;20046;-82
2023/03/06 04:45:28;;;;;;;29.20;13.98;;;;;;;7.57;53.02;100252.00;5013713;28;20501;-83
2023/03/06 04:47:54;;;;;;;34.80;13.18;;;;;;;7.59;52.80;100233.97;5008457;28;20050;-81
2023/03/06 04:50:20;;;;;;;37.88;14.98;;;;;;;7.73;52.63;100250.84;5009003;28;20168;-83
2023/03/06 04:52:46;;;;;;;31.05;15.18;;;;;;;7.74;52.75;100253.38;5008795;28;20040;-82
2023/03/06 04:55:14;;;;;;;26.55;12.70;;;;;;;7.91;52.47;100254.78;5008427;28;20037;-81
2023/03/06 04:57:42;;;;;;;26.33;13.73;;;;;;;7.96;52.39;100255.28;5009008;28;20029;-83
2023/03/06 05:00:16;;;;;;;28.05;13.63;;;;;;;8.01;51.98;100258.47;5009670;28;20245;-83
2023/03/06 05:02:43;;;;;;;28.60;12.43;;;;;;;8.02;51.69;100254.81;5010847;28;20068;-81
2023/03/06 05:05:09;;;;;;;25.95;13.48;;;;;;;7.92;51.99;100245.78;5003927;28;20076;-81
2023/03/06 05:07:35;;;;;;;35.50;13.27;;;;;;;8.03;51.65;100249.34;5014788;28;20038;-80
2023/03/06 05:10:00;;;;;;;43.15;15.60;;;;;;;8.04;51.39;100271.63;5007357;28;20037;-78
2023/03/06 05:12:26;;;;;;;24.65;13.57;;;;;;;8.16;51.13;100266.16;5007493;28;20057;-78
2023/03/06 05:14:51;;;;;;;29.77;14.05;;;;;;;8.22;51.05;100262.19;5006944;28;20034;-81
2023/03/06 05:17:17;;;;;;;26.05;12.65;;;;;;;8.19;51.07;100267.78;5007238;28;20026;-80
2023/03/06 05:19:42;;;;;;;29.75;13.35;;;;;;;8.23;50.77;100274.56;5006062;28;20462;-79
2023/03/06 05:22:08;;;;;;;28.02;14.25;;;;;;;8.28;50.55;100276.94;5029612;28;20022;-83
2023/03/06 05:24:33;;;;;;;32.83;13.07;;;;;;;8.18;50.58;100280.31;5029044;28;20045;-78
2023/03/06 05:26:58;;;;;;;26.67;12.15;;;;;;;8.29;50.23;100279.50;5029011;28;20021;-80
2023/03/06 05:29:24;;;;;;;35.05;13.63;;;;;;;8.28;49.88;100274.28;5029310;28;20409;-81
2023/03/06 05:31:49;;;;;;;27.35;12.88;;;;;;;8.26;49.84;100266.31;5029129;28;20021;-80
2023/03/06 05:34:15;;;;;;;32.53;12.48;;;;;;;8.26;50.55;100278.84;5028200;28;20045;-81
2023/03/06 05:36:42;;;;;;;33.25;13.10;;;;;;;8.32;50.03;100276.56;5029344;28;20041;-82
2023/03/06 05:39:08;;;;;;;32.22;11.48;;;;;;;8.39;48.81;100283.19;5028622;28;20390;-80
2023/03/06 05:41:34;;;;;;;23.80;10.65;;;;;;;8.45;48.77;100282.69;5029267;28;20666;-80
2023/03/06 05:43:59;;;;;;;39.45;10.85;;;;;;;8.49;48.14;100281.50;5029658;28;20034;-80
2023/03/06 05:46:25;;;;;;;27.95;10.80;;;;;;;8.58;47.85;100286.13;5028889;28;20370;-80
2023/03/06 05:48:54;;;;;;;30.70;10.40;;;;;;;8.55;47.92;100288.19;5029208;28;20022;-80
2023/03/06 05:51:20;;;;;;;24.95;11.02;;;;;;;8.46;48.35;100273.69;5027879;28;20416;-79
2023/03/06 05:53:46;;;;;;;29.42;10.90;;;;;;;8.57;47.86;100297.81;5028967;28;20144;-80
2023/03/06 05:56:12;;;;;;;42.15;12.73;;;;;;;8.58;47.84;100291.50;5027999;28;20053;-78
2023/03/06 05:58:38;;;;;;;77.07;18.13;;;;;;;8.65;47.91;100284.66;5029328;28;20522;-80
2023/03/06 06:01:12;;;;;;;32.47;12.60;;;;;;;8.70;47.45;100293.22;5030059;28;20041;-80
2023/03/06 06:03:38;;;;;;;49.13;13.20;;;;;;;8.71;47.22;100297.56;5041007;28;20025;-81
2023/03/06 06:06:04;;;;;;;110.68;19.77;;;;;;;8.66;47.30;100286.38;5042522;28;20030;-83
2023/03/06 06:08:30;;;;;;;31.00;13.02;;;;;;;8.75;47.44;100307.09;5029501;28;20081;-82
2023/03/06 06:10:55;;;;;;;43.00;13.02;;;;;;;8.83;47.51;100313.69;5029420;28;20155;-83
2023/03/06 06:13:21;;;;;;;31.75;12.05;;;;;;;8.92;46.97;100307.59;5029112;28;20464;-83
2023/03/06 06:15:46;;;;;;;74.85;14.55;;;;;;;8.99;46.77;100304.28;5029615;28;20029;-83
2023/03/06 06:18:11;;;;;;;60.75;15.98;;;;;;;9.04;46.07;100302.09;5029310;28;20037;-82
2023/03/06 06:20:37;;;;;;;47.30;14.18;;;;;;;9.11;46.16;100313.19;5029268;28;20037;-82
2023/03/06 06:23:03;;;;;;;25.70;12.52;;;;;;;9.17;46.29;100312.72;5029053;28;20070;-82
2023/03/06 06:25:28;;;;;;;34.50;12.50;;;;;;;9.16;46.00;100316.34;5029163;28;20412;-83
2023/03/06 06:27:55;;;;;;;24.98;12.15;;;;;;;9.08;45.71;100308.09;5029541;28;20381;-80
2023/03/06 06:30:21;;;;;;;48.00;12.98;;;;;;;9.04;46.51;100317.34;5029273;28;20463;-82
2023/03/06 06:32:47;;;;;;;22.05;11.43;;;;;;;9.09;46.04;100309.78;5029873;28;20099;-81
2023/03/06 06:35:12;;;;;;;32.22;11.07;;;;;;;9.09;45.34;100307.09;5029417;28;20127;-82
2023/03/06 06:37:38;;;;;;;22.05;11.10;;;;;;;9.31;45.63;100331.22;5030790;28;20080;-82
2023/03/06 06:40:04;;;;;;;25.15;10.60;;;;;;;9.34;44.94;100335.47;5032486;28;20049;-83
2023/03/06 06:42:29;;;;;;;16.05;9.35;;;;;;;9.32;44.61;100327.56;5032575;28;20029;-81
2023/03/06 06:44:55;;;;;;;38.85;9.68;;;;;;;9.47;44.92;100329.00;5032996;28;20057;-81
2023/03/06 06:47:20;;;;;;;31.38;12.32;;;;;;;9.62;44.49;100330.44;5032741;28;20075;-81
2023/03/06 06:49:49;;;;;;;31.88;9.98;;;;;;;9.75;44.00;100344.53;5032837;28;20033;-81
2023/03/06 06:52:15;;;;;;;14.05;9.25;;;;;;;9.67;44.08;100332.72;5032743;28;20136;-81
2023/03/06 06:54:41;;;;;;;27.80;10.25;;;;;;;9.65;43.99;100335.56;5032267;28;21291;-83
2023/03/06 06:57:06;;;;;;;19.80;10.05;;;;;;;9.78;43.84;100336.22;5032487;28;20101;-83
2023/03/06 06:59:31;;;;;;;19.77;10.20;;;;;;;9.64;43.42;100328.47;5037639;28;20044;-82
2023/03/06 07:01:57;;;;;;;17.38;10.38;;;;;;;9.64;43.73;100324.91;5045500;28;20140;-82
2023/03/06 07:04:22;;;;;;;27.90;10.07;;;;;;;9.64;43.73;100346.41;5043952;28;20034;-83
2023/03/06 07:06:48;;;;;;;20.27;11.00;;;;;;;9.69;43.82;100342.34;5032617;28;20486;-81
2023/03/06 07:09:16;;;;;;;22.77;10.48;;;;;;;9.69;43.54;100353.09;5031933;28;20412;-81
2023/03/06 07:11:42;;;;;;;26.55;11.25;;;;;;;9.62;43.65;100341.19;5032174;28;20021;-83
2023/03/06 07:14:07;;;;;;;18.80;11.18;;;;;;;9.47;43.66;100342.44;5031844;28;20032;-82
2023/03/06 07:16:33;;;;;;;20.05;10.07;;;;;;;9.56;43.85;100344.34;5031803;28;20036;-82
2023/03/06 07:18:59;;;;;;;34.95;10.70;;;;;;;9.44;43.94;100340.00;5031698;28;20671;-82
2023/03/06 07:21:24;;;;;;;37.90;11.68;;;;;;;9.49;44.36;100356.56;5032339;28;20026;-82
2023/03/06 07:23:49;;;;;;;22.63;11.77;;;;;;;9.54;43.54;100343.59;5032140;28;20037;-82
2023/03/06 07:26:15;;;;;;;22.90;13.05;;;;;;;9.50;43.42;100320.69;5031746;28;20025;-80
2023/03/06 07:28:40;;;;;;;45.88;14.48;;;;;;;9.70;43.39;100344.06;5032646;28;20140;-81
2023/03/06 07:31:10;;;;;;;30.77;16.05;;;;;;;9.87;43.28;100349.88;5030362;28;20033;-83
2023/03/06 07:33:37;;;;;;;27.70;14.90;;;;;;;10.04;43.25;100346.63;5031766;28;20072;-82
2023/03/06 07:36:02;;;;;;;32.85;16.73;;;;;;;10.24;42.70;100365.50;5031661;28;20033;-82
2023/03/06 07:38:28;;;;;;;37.65;12.90;;;;;;;10.36;42.26;100369.03;5032043;28;20029;-82
2023/03/06 07:40:53;;;;;;;19.98;11.75;;;;;;;10.32;42.32;100362.19;5031809;28;20457;-81
2023/03/06 07:43:18;;;;;;;24.42;11.75;;;;;;;10.49;42.50;100361.59;5031212;28;20025;-83
2023/03/06 07:45:45;;;;;;;32.53;11.27;;;;;;;10.49;41.75;100363.47;5032014;28;20052;-81
2023/03/06 07:48:12;;;;;;;29.52;12.10;;;;;;;10.58;41.77;100360.81;5031340;28;20030;-82
2023/03/06 07:50:37;;;;;;;17.50;9.43;;;;;;;10.59;40.74;100354.47;5012806;28;20104;-83
2023/03/06 07:53:03;;;;;;;13.88;7.55;;;;;;;10.58;40.38;100346.53;5032248;28;20611;-82
2023/03/06 07:55:28;;;;;;;16.67;8.68;;;;;;;10.65;40.62;100359.31;5031505;28;20392;-82
2023/03/06 07:57:54;;;;;;;40.22;10.77;;;;;;;10.80;40.78;100359.81;5038879;28;20029;-81
2023/03/06 08:00:20;;;;;;;29.42;10.52;;;;;;;10.83;40.08;100357.72;5047721;28;20032;-81
2023/03/06 08:02:45;;;;;;;27.30;9.38;;;;;;;10.82;40.31;100366.78;5039704;28;20057;-81
2023/03/06 08:05:13;;;;;;;22.33;10.13;;;;;;;10.76;40.56;100351.16;5032785;28;20408;-82
2023/03/06 08:07:39;;;;;;;29.60;13.57;;;;;;;10.83;40.60;100351.50;5045409;28;20025;-81
2023/03/06 08:10:05;;;;;;;19.20;9.73;;;;;;;10.86;40.90;100362.84;5046364;28;20022;-80
2023/03/06 08:12:30;;;;;;;20.95;10.65;;;;;;;10.87;40.88;100347.56;5050737;28;20028;-80
2023/03/06 08:14:56;;;;;;;25.08;11.18;;;;;;;10.93;41.48;100358.63;5039994;28;20468;-81
2023/03/06 08:17:21;;;;;;;29.58;10.90;;;;;;;10.95;40.70;100360.34;5031095;28;20392;-82
2023/03/06 08:19:47;;;;;;;28.80;10.77;;;;;;;11.01;40.50;100354.44;5029667;28;20065;-84
2023/03/06 08:22:13;;;;;;;31.00;11.07;;;;;;;10.87;39.92;100372.63;5031525;28;20044;-81
2023/03/06 08:24:38;;;;;;;21.83;9.50;;;;;;;10.97;39.80;100364.59;5029215;28;20029;-82
2023/03/06 08:27:03;;;;;;;23.20;9.60;;;;;;;11.01;40.24;100368.72;5028753;28;20053;-82
2023/03/06 08:29:29;;;;;;;27.10;10.57;;;;;;;11.00;40.29;100363.47;5030469;28;20033;-82
2023/03/06 08:31:54;;;;;;;19.10;9.85;;;;;;;11.16;39.59;100359.28;5030060;28;20031;-82
2023/03/06 08:34:23;;;;;;;24.50;11.65;;;;;;;11.17;39.77;100357.47;5030085;28;20642;-81
2023/03/06 08:36:49;;;;;;;27.10;11.85;;;;;;;11.22;39.60;100358.75;5030040;28;20057;-82
2023/03/06 08:39:14;;;;;;;22.15;10.80;;;;;;;11.37;39.53;100359.25;5028835;28;20072;-82
2023/03/06 08:41:41;;;;;;;22.83;10.85;;;;;;;11.51;39.78;100360.72;5030483;28;20022;-83
2023/03/06 08:44:06;;;;;;;22.17;10.35;;;;;;;11.61;39.39;100364.28;5030446;28;20079;-84
2023/03/06 08:46:32;;;;;;;18.98;10.82;;;;;;;11.65;39.97;100361.16;5030099;28;20686;-82
2023/03/06 08:48:58;;;;;;;21.63;10.73;;;;;;;11.72;39.71;100361.50;5030608;28;20110;-83
2023/03/06 08:51:25;;;;;;;18.83;9.77;;;;;;;11.58;39.91;100368.13;5030661;28;20114;-83
2023/03/06 08:53:51;;;;;;;14.25;8.88;;;;;;;11.61;39.55;100365.16;5030273;28;20116;-82
2023/03/06 08:56:22;;;;;;;23.77;9.85;;;;;;;11.67;39.51;100363.75;5034127;28;20516;-81
2023/03/06 08:58:48;;;;;;;21.45;9.65;;;;;;;11.61;39.44;100359.75;5043016;28;20112;-82
2023/03/06 09:01:19;;;;;;;18.90;9.27;;;;;;;11.63;39.96;100363.16;5041329;28;20041;-81
2023/03/06 09:03:45;;;;;;;16.02;10.10;;;;;;;11.66;39.42;100346.72;5031023;28;20112;-81
2023/03/06 09:06:10;;;;;;;18.13;9.50;;;;;;;11.67;40.29;100364.59;5030604;28;20101;-83
2023/03/06 09:08:37;;;;;;;22.38;10.18;;;;;;;11.77;39.61;100348.50;5030506;28;20535;-83
2023/03/06 09:11:02;;;;;;;21.88;10.32;;;;;;;11.86;39.80;100359.25;5030655;28;20040;-85
2023/03/06 09:13:28;;;;;;;26.95;9.68;;;;;;;11.99;39.58;100365.25;5031456;28;20085;-81
2023/03/06 09:15:53;;;;;;;21.83;10.35;;;;;;;12.05;39.12;100369.22;5031213;28;20090;-82
2023/03/06 09:18:18;;;;;;;19.55;10.00;;;;;;;12.09;39.06;100375.19;5030592;28;20163;-80
2023/03/06 09:20:44;;;;;;;26.00;10.82;;;;;;;12.19;38.07;100373.34;5030446;28;20033;-83
2023/03/06 09:23:09;;;;;;;24.10;11.02;;;;;;;12.25;38.24;100367.38;5031493;28;20037;-83
2023/03/06 09:25:35;;;;;;;12.65;8.57;;;;;;;12.28;38.08;100359.00;5030853;28;20029;-82
2023/03/06 09:28:00;;;;;;;16.02;9.13;;;;;;;12.43;37.34;100363.84;5030188;28;20028;-82
2023/03/06 09:30:26;;;;;;;21.90;10.27;;;;;;;12.43;37.49;100363.84;5031640;28;20044;-83
2023/03/06 09:32:51;;;;;;;19.60;10.68;;;;;;;12.45;37.79;100371.78;5031524;28;20049;-82
2023/03/06 09:35:17;;;;;;;19.35;10.25;;;;;;;12.37;37.91;100352.75;5030486;28;20022;-81
2023/03/06 09:37:43;;;;;;;20.98;10.73;;;;;;;12.55;37.88;100367.22;5031066;28;20030;-83
2023/03/06 09:40:41;;;;;;;31.05;9.68;;;;;;;12.57;37.21;100373.31;5030545;28;20034;-83
2023/03/06 09:43:18;;;;;;;16.23;9.70;;;;;;;12.72;37.48;100368.34;4992521;28;20112;-81
2023/03/06 09:45:44;;;;;;;15.88;9.18;;;;;;;12.80;37.32;100366.63;5008771;28;20021;-84
2023/03/06 09:48:13;;;;;;;18.75;9.35;;;;;;;12.92;37.64;100370.84;5008079;28;20096;-80
2023/03/06 09:50:51;;;;;;;20.23;10.15;;;;;;;12.98;37.32;100372.13;5008154;28;20048;-83
2023/03/06 09:53:39;;;;;;;14.75;9.07;;;;;;;13.13;36.99;100361.72;5008883;28;20084;-82
2023/03/06 09:56:19;;;;;;;22.40;9.52;;;;;;;13.05;36.73;100349.81;5009077;28;20113;-82
2023/03/06 09:58:50;;;;;;;20.75;9.88;;;;;;;13.14;36.03;100341.84;5010249;28;20038;-82
2023/03/06 10:01:44;;;;;;;16.95;9.25;;;;;;;13.11;35.61;100355.63;4999861;28;20037;-81
2023/03/06 10:04:31;;;;;;;16.48;9.05;;;;;;;13.17;35.45;100346.94;4952342;28;20422;-82
2023/03/06 10:07:07;;;;;;;18.55;9.32;;;;;;;13.37;35.77;100345.84;4953417;28;20402;-82
2023/03/06 10:09:51;;;;;;;17.40;9.77;;;;;;;13.46;35.19;100353.03;4969274;28;20043;-81
2023/03/06 10:12:19;;;;;;;26.50;10.13;;;;;;;13.42;34.95;100352.50;4956182;28;20031;-82
2023/03/06 10:14:56;;;;;;;16.33;8.32;;;;;;;13.43;35.26;100354.19;4972570;28;20069;-83
2023/03/06 10:17:24;;;;;;;18.10;9.40;;;;;;;13.44;35.16;100341.56;4972548;28;20058;-81
2023/03/06 10:19:51;;;;;;;46.08;10.45;;;;;;;13.45;35.22;100345.97;4971863;28;20068;-83
2023/03/06 10:22:29;;;;;;;18.88;10.40;;;;;;;13.54;35.10;100347.75;4972195;28;20194;-81
2023/03/06 10:25:15;;;;;;;32.47;13.18;;;;;;;13.58;34.41;100347.28;4972826;28;20035;-82
2023/03/06 10:27:47;;;;;;;31.13;13.55;;;;;;;13.49;34.81;100339.25;4971370;28;20051;-83
2023/03/06 10:30:51;;;;;;;22.13;11.25;;;;;;;13.52;34.25;100337.09;4972559;28;20086;-82
2023/03/06 10:33:16;;;;;;;23.90;12.18;;;;;;;13.51;34.39;100329.16;4971778;28;20494;-81
2023/03/06 10:35:44;;;;;;;22.17;12.10;;;;;;;13.41;34.26;100333.75;4971544;28;20046;-84
2023/03/06 10:38:23;;;;;;;25.38;11.57;;;;;;;13.49;34.21;100320.31;4971774;28;20054;-81
2023/03/06 10:41:02;;;;;;;22.05;11.23;;;;;;;13.34;34.40;100300.22;4987541;28;20531;-84
2023/03/06 10:43:28;;;;;;;30.98;11.02;;;;;;;13.52;34.01;100318.19;5033651;28;20033;-83
2023/03/06 10:45:53;;;;;;;25.83;11.13;;;;;;;13.76;34.45;100328.41;5033774;28;20479;-84
2023/03/06 10:48:25;;;;;;;26.92;12.27;;;;;;;13.70;33.66;100311.97;5032828;28;20044;-81
2023/03/06 10:50:53;;;;;;;20.98;11.10;;;;;;;13.76;33.82;100306.78;5037975;28;20025;-83
2023/03/06 10:53:30;;;;;;;21.15;10.38;;;;;;;13.70;33.72;100302.00;5034816;28;20032;-82
2023/03/06 10:55:58;;;;;;;31.00;11.75;;;;;;;13.65;34.04;100309.72;5048460;28;20056;-81
2023/03/06 10:58:28;;;;;;;26.00;10.65;;;;;;;13.73;33.63;100296.28;5044636;28;20021;-82
2023/03/06 11:01:00;;;;;;;22.13;12.52;;;;;;;13.89;33.51;100301.84;5048941;28;20032;-82
2023/03/06 11:03:26;;;;;;;33.45;14.05;;;;;;;14.04;33.50;100289.50;5039799;28;20028;-83
2023/03/06 11:05:55;;;;;;;21.23;12.10;;;;;;;14.16;33.48;100295.50;5032336;28;20473;-82
2023/03/06 11:08:21;;;;;;;23.08;12.93;;;;;;;14.22;33.08;100291.34;5031934;28;20053;-81
2023/03/06 11:11:21;;;;;;;34.03;13.13;;;;;;;14.27;33.33;100291.72;5032449;28;20087;-83
2023/03/06 11:13:56;;;;;;;27.80;13.93;;;;;;;14.22;33.26;100285.94;5011353;28;20133;-82
2023/03/06 11:16:30;;;;;;;26.92;13.32;;;;;;;14.24;33.08;100284.78;5009254;28;20026;-81
2023/03/06 11:19:00;;;;;;;28.52;14.95;;;;;;;14.20;33.19;100286.09;5009492;28;20465;-84